sensor_id;sensor_type;location;lat;lon;timestamp;P1;durP1;ratioP1;P2;durP2;ratioP2
54613;SDS011;40514;52.758;6.360;2022-12-18T00:00:58;51.22;;;23.40;;
54613;SDS011;40514;52.758;6.360;2022-12-18T00:03:24;51.63;;;24.13;;
54613;SDS011;40514;52.758;6.360;2022-12-18T00:05:50;53.90;;;21.92;;
54613;SDS011;40514;52.758;6.360;2022-12-18T00:08:17;56.80;;;23.33;;
54613;SDS011;40514;52.758;6.360;2022-12-18T00:10:43;61.75;;;24.80;;
54613;SDS011;40514;52.758;6.360;2022-12-18T00:13:10;56.95;;;23.23;;
54613;SDS011;40514;52.758;6.360;2022-12-18T00:15:37;52.42;;;22.48;;
54613;SDS011;40514;52.758;6.360;2022-12-18T00:18:03;55.40;;;22.95;;
54613;SDS011;40514;52.758;6.360;2022-12-18T00:20:29;55.70;;;23.83;;
54613;SDS011;40514;52.758;6.360;2022-12-18T00:22:55;57.72;;;24.77;;
54613;SDS011;40514;52.758;6.360;2022-12-18T00:25:21;56.43;;;23.00;;
54613;SDS011;40514;52.758;6.360;2022-12-18T00:27:46;57.58;;;24.38;;
54613;SDS011;40514;52.758;6.360;2022-12-18T00:30:12;60.13;;;23.63;;
54613;SDS011;40514;52.758;6.360;2022-12-18T00:32:38;57.70;;;25.17;;
54613;SDS011;40514;52.758;6.360;2022-12-18T00:35:04;59.73;;;25.50;;
54613;SDS011;40514;52.758;6.360;2022-12-18T00:39:55;61.08;;;25.88;;
54613;SDS011;40514;52.758;6.360;2022-12-18T00:42:21;55.77;;;24.93;;
54613;SDS011;40514;52.758;6.360;2022-12-18T00:45:05;58.72;;;25.88;;
54613;SDS011;40514;52.758;6.360;2022-12-18T00:47:31;56.97;;;25.83;;
54613;SDS011;40514;52.758;6.360;2022-12-18T00:49:56;60.23;;;25.87;;
54613;SDS011;40514;52.758;6.360;2022-12-18T00:52:22;62.90;;;29.10;;
54613;SDS011;40514;52.758;6.360;2022-12-18T00:54:48;61.13;;;27.20;;
54613;SDS011;40514;52.758;6.360;2022-12-18T00:57:13;61.73;;;26.80;;
54613;SDS011;40514;52.758;6.360;2022-12-18T00:59:39;63.00;;;27.67;;
54613;SDS011;40514;52.758;6.360;2022-12-18T01:02:04;62.53;;;27.50;;
54613;SDS011;40514;52.758;6.360;2022-12-18T01:04:33;70.83;;;28.83;;
54613;SDS011;40514;52.758;6.360;2022-12-18T01:06:59;63.95;;;28.33;;
54613;SDS011;40514;52.758;6.360;2022-12-18T01:09:24;66.33;;;28.03;;
54613;SDS011;40514;52.758;6.360;2022-12-18T01:11:50;66.67;;;27.90;;
54613;SDS011;40514;52.758;6.360;2022-12-18T01:14:16;58.07;;;28.17;;
54613;SDS011;40514;52.758;6.360;2022-12-18T01:16:41;63.27;;;28.47;;
54613;SDS011;40514;52.758;6.360;2022-12-18T01:19:07;65.67;;;28.77;;
54613;SDS011;40514;52.758;6.360;2022-12-18T01:21:32;68.53;;;30.20;;
54613;SDS011;40514;52.758;6.360;2022-12-18T01:23:58;61.42;;;27.67;;
54613;SDS011;40514;52.758;6.360;2022-12-18T01:26:24;62.17;;;25.30;;
54613;SDS011;40514;52.758;6.360;2022-12-18T01:28:50;61.30;;;28.98;;
54613;SDS011;40514;52.758;6.360;2022-12-18T01:31:20;67.03;;;27.97;;
54613;SDS011;40514;52.758;6.360;2022-12-18T01:33:48;61.78;;;28.85;;
54613;SDS011;40514;52.758;6.360;2022-12-18T01:36:27;58.67;;;26.85;;
54613;SDS011;40514;52.758;6.360;2022-12-18T01:38:55;59.97;;;27.67;;
54613;SDS011;40514;52.758;6.360;2022-12-18T01:41:25;64.45;;;28.52;;
54613;SDS011;40514;52.758;6.360;2022-12-18T01:47:16;58.67;;;27.70;;
54613;SDS011;40514;52.758;6.360;2022-12-18T01:50:23;59.05;;;27.25;;
54613;SDS011;40514;52.758;6.360;2022-12-18T01:52:56;58.38;;;27.17;;
54613;SDS011;40514;52.758;6.360;2022-12-18T01:55:26;55.20;;;25.50;;
54613;SDS011;40514;52.758;6.360;2022-12-18T01:57:55;54.10;;;27.55;;
54613;SDS011;40514;52.758;6.360;2022-12-18T02:00:23;58.22;;;27.65;;
54613;SDS011;40514;52.758;6.360;2022-12-18T02:02:49;59.08;;;27.60;;
54613;SDS011;40514;52.758;6.360;2022-12-18T02:05:16;56.03;;;26.13;;
54613;SDS011;40514;52.758;6.360;2022-12-18T02:10:38;57.90;;;25.02;;
54613;SDS011;40514;52.758;6.360;2022-12-18T02:15:44;47.90;;;20.87;;
54613;SDS011;40514;52.758;6.360;2022-12-18T02:18:30;49.08;;;22.05;;
54613;SDS011;40514;52.758;6.360;2022-12-18T02:21:04;48.50;;;20.90;;
54613;SDS011;40514;52.758;6.360;2022-12-18T02:26:37;50.67;;;21.35;;
54613;SDS011;40514;52.758;6.360;2022-12-18T02:29:12;51.53;;;22.42;;
54613;SDS011;40514;52.758;6.360;2022-12-18T02:31:51;48.38;;;20.30;;
54613;SDS011;40514;52.758;6.360;2022-12-18T02:34:19;51.95;;;21.27;;
54613;SDS011;40514;52.758;6.360;2022-12-18T02:36:48;47.30;;;21.48;;
54613;SDS011;40514;52.758;6.360;2022-12-18T02:39:16;53.15;;;21.83;;
54613;SDS011;40514;52.758;6.360;2022-12-18T02:41:42;50.28;;;21.40;;
54613;SDS011;40514;52.758;6.360;2022-12-18T02:44:12;49.63;;;21.00;;
54613;SDS011;40514;52.758;6.360;2022-12-18T02:46:43;53.13;;;22.17;;
54613;SDS011;40514;52.758;6.360;2022-12-18T02:49:27;52.53;;;21.60;;
54613;SDS011;40514;52.758;6.360;2022-12-18T02:52:26;52.70;;;21.52;;
54613;SDS011;40514;52.758;6.360;2022-12-18T03:01:09;52.22;;;20.55;;
54613;SDS011;40514;52.758;6.360;2022-12-18T03:03:43;45.75;;;20.55;;
54613;SDS011;40514;52.758;6.360;2022-12-18T03:06:39;51.58;;;20.63;;
54613;SDS011;40514;52.758;6.360;2022-12-18T03:09:12;51.72;;;21.90;;
54613;SDS011;40514;52.758;6.360;2022-12-18T03:11:44;49.33;;;20.42;;
54613;SDS011;40514;52.758;6.360;2022-12-18T03:14:32;49.58;;;21.90;;
54613;SDS011;40514;52.758;6.360;2022-12-18T03:17:03;53.08;;;22.52;;
54613;SDS011;40514;52.758;6.360;2022-12-18T03:19:32;48.92;;;21.02;;
54613;SDS011;40514;52.758;6.360;2022-12-18T03:22:00;47.13;;;21.27;;
54613;SDS011;40514;52.758;6.360;2022-12-18T03:24:28;47.13;;;19.45;;
54613;SDS011;40514;52.758;6.360;2022-12-18T03:26:57;46.25;;;19.75;;
54613;SDS011;40514;52.758;6.360;2022-12-18T03:29:29;52.40;;;19.55;;
54613;SDS011;40514;52.758;6.360;2022-12-18T03:32:06;50.25;;;20.02;;
54613;SDS011;40514;52.758;6.360;2022-12-18T03:34:35;48.45;;;19.73;;
54613;SDS011;40514;52.758;6.360;2022-12-18T03:37:04;48.53;;;20.25;;
54613;SDS011;40514;52.758;6.360;2022-12-18T03:39:30;45.55;;;18.98;;
54613;SDS011;40514;52.758;6.360;2022-12-18T03:41:59;44.90;;;19.60;;
54613;SDS011;40514;52.758;6.360;2022-12-18T03:44:39;49.63;;;18.95;;
54613;SDS011;40514;52.758;6.360;2022-12-18T03:52:41;43.92;;;18.58;;
54613;SDS011;40514;52.758;6.360;2022-12-18T03:55:12;43.88;;;19.20;;
54613;SDS011;40514;52.758;6.360;2022-12-18T03:57:38;46.13;;;18.53;;
54613;SDS011;40514;52.758;6.360;2022-12-18T04:00:08;55.35;;;20.50;;
54613;SDS011;40514;52.758;6.360;2022-12-18T04:02:36;44.10;;;19.77;;
54613;SDS011;40514;52.758;6.360;2022-12-18T04:05:05;49.65;;;20.20;;
54613;SDS011;40514;52.758;6.360;2022-12-18T04:07:33;48.17;;;21.95;;
54613;SDS011;40514;52.758;6.360;2022-12-18T04:09:59;43.65;;;19.50;;
54613;SDS011;40514;52.758;6.360;2022-12-18T04:12:26;46.63;;;19.98;;
54613;SDS011;40514;52.758;6.360;2022-12-18T04:14:54;50.88;;;20.60;;
54613;SDS011;40514;52.758;6.360;2022-12-18T04:17:20;48.57;;;19.40;;
54613;SDS011;40514;52.758;6.360;2022-12-18T04:19:47;49.47;;;21.30;;
54613;SDS011;40514;52.758;6.360;2022-12-18T04:22:12;44.77;;;19.33;;
54613;SDS011;40514;52.758;6.360;2022-12-18T04:24:38;43.90;;;19.27;;
54613;SDS011;40514;52.758;6.360;2022-12-18T04:27:04;49.73;;;21.00;;
54613;SDS011;40514;52.758;6.360;2022-12-18T04:29:30;39.50;;;19.50;;
54613;SDS011;40514;52.758;6.360;2022-12-18T04:31:55;50.60;;;20.30;;
54613;SDS011;40514;52.758;6.360;2022-12-18T04:34:21;46.03;;;19.20;;
54613;SDS011;40514;52.758;6.360;2022-12-18T04:36:46;45.63;;;19.73;;
54613;SDS011;40514;52.758;6.360;2022-12-18T04:39:13;47.47;;;19.30;;
54613;SDS011;40514;52.758;6.360;2022-12-18T04:41:38;46.30;;;18.93;;
54613;SDS011;40514;52.758;6.360;2022-12-18T04:44:04;45.27;;;20.57;;
54613;SDS011;40514;52.758;6.360;2022-12-18T04:46:30;44.90;;;18.53;;
54613;SDS011;40514;52.758;6.360;2022-12-18T04:48:55;53.63;;;19.00;;
54613;SDS011;40514;52.758;6.360;2022-12-18T04:51:21;43.40;;;19.00;;
54613;SDS011;40514;52.758;6.360;2022-12-18T04:53:47;43.70;;;18.07;;
54613;SDS011;40514;52.758;6.360;2022-12-18T04:56:13;46.50;;;19.43;;
54613;SDS011;40514;52.758;6.360;2022-12-18T04:58:40;40.20;;;19.48;;
54613;SDS011;40514;52.758;6.360;2022-12-18T05:01:08;47.75;;;19.75;;
54613;SDS011;40514;52.758;6.360;2022-12-18T05:03:35;42.50;;;18.35;;
54613;SDS011;40514;52.758;6.360;2022-12-18T05:06:01;47.92;;;19.70;;
54613;SDS011;40514;52.758;6.360;2022-12-18T05:08:27;42.17;;;18.02;;
54613;SDS011;40514;52.758;6.360;2022-12-18T05:11:03;45.60;;;19.50;;
54613;SDS011;40514;52.758;6.360;2022-12-18T05:13:30;43.28;;;18.17;;
54613;SDS011;40514;52.758;6.360;2022-12-18T05:15:56;43.15;;;18.83;;
54613;SDS011;40514;52.758;6.360;2022-12-18T05:18:22;41.30;;;18.77;;
54613;SDS011;40514;52.758;6.360;2022-12-18T05:20:49;40.90;;;18.65;;
54613;SDS011;40514;52.758;6.360;2022-12-18T05:23:15;47.17;;;18.83;;
54613;SDS011;40514;52.758;6.360;2022-12-18T05:25:41;40.53;;;18.80;;
54613;SDS011;40514;52.758;6.360;2022-12-18T05:28:07;47.10;;;19.40;;
54613;SDS011;40514;52.758;6.360;2022-12-18T05:30:33;42.57;;;19.13;;
54613;SDS011;40514;52.758;6.360;2022-12-18T05:32:59;40.63;;;17.77;;
54613;SDS011;40514;52.758;6.360;2022-12-18T05:35:24;40.80;;;18.07;;
54613;SDS011;40514;52.758;6.360;2022-12-18T05:37:50;44.73;;;16.87;;
54613;SDS011;40514;52.758;6.360;2022-12-18T05:40:16;35.90;;;17.30;;
54613;SDS011;40514;52.758;6.360;2022-12-18T05:42:41;39.07;;;17.23;;
54613;SDS011;40514;52.758;6.360;2022-12-18T05:45:07;37.10;;;18.53;;
54613;SDS011;40514;52.758;6.360;2022-12-18T05:47:33;44.77;;;18.87;;
54613;SDS011;40514;52.758;6.360;2022-12-18T05:49:58;38.80;;;16.40;;
54613;SDS011;40514;52.758;6.360;2022-12-18T05:52:24;39.77;;;17.73;;
54613;SDS011;40514;52.758;6.360;2022-12-18T05:54:49;34.57;;;16.77;;
54613;SDS011;40514;52.758;6.360;2022-12-18T05:57:15;34.73;;;16.80;;
54613;SDS011;40514;52.758;6.360;2022-12-18T05:59:40;34.87;;;15.97;;
54613;SDS011;40514;52.758;6.360;2022-12-18T06:02:06;36.30;;;16.07;;
54613;SDS011;40514;52.758;6.360;2022-12-18T06:04:31;38.50;;;16.47;;
54613;SDS011;40514;52.758;6.360;2022-12-18T06:06:57;34.17;;;16.97;;
54613;SDS011;40514;52.758;6.360;2022-12-18T06:09:23;37.13;;;16.37;;
54613;SDS011;40514;52.758;6.360;2022-12-18T06:11:49;35.03;;;16.73;;
54613;SDS011;40514;52.758;6.360;2022-12-18T06:14:16;39.33;;;16.98;;
54613;SDS011;40514;52.758;6.360;2022-12-18T06:16:42;33.63;;;16.70;;
54613;SDS011;40514;52.758;6.360;2022-12-18T06:19:12;35.20;;;15.80;;
54613;SDS011;40514;52.758;6.360;2022-12-18T06:21:40;36.30;;;16.80;;
54613;SDS011;40514;52.758;6.360;2022-12-18T06:24:06;32.20;;;15.37;;
54613;SDS011;40514;52.758;6.360;2022-12-18T06:26:32;33.87;;;17.03;;
54613;SDS011;40514;52.758;6.360;2022-12-18T06:28:57;33.67;;;16.47;;
54613;SDS011;40514;52.758;6.360;2022-12-18T06:31:23;33.33;;;15.60;;
54613;SDS011;40514;52.758;6.360;2022-12-18T06:33:49;31.67;;;15.30;;
54613;SDS011;40514;52.758;6.360;2022-12-18T06:36:15;34.37;;;16.60;;
54613;SDS011;40514;52.758;6.360;2022-12-18T06:38:42;33.42;;;15.52;;
54613;SDS011;40514;52.758;6.360;2022-12-18T06:41:13;34.08;;;16.25;;
54613;SDS011;40514;52.758;6.360;2022-12-18T06:43:40;35.40;;;14.40;;
54613;SDS011;40514;52.758;6.360;2022-12-18T06:46:05;31.67;;;15.40;;
54613;SDS011;40514;52.758;6.360;2022-12-18T06:48:31;29.47;;;15.90;;
54613;SDS011;40514;52.758;6.360;2022-12-18T06:50:58;33.43;;;17.37;;
54613;SDS011;40514;52.758;6.360;2022-12-18T06:53:24;34.75;;;15.73;;
54613;SDS011;40514;52.758;6.360;2022-12-18T06:55:49;31.17;;;14.97;;
54613;SDS011;40514;52.758;6.360;2022-12-18T06:58:16;34.80;;;15.57;;
54613;SDS011;40514;52.758;6.360;2022-12-18T07:00:42;33.92;;;15.20;;
54613;SDS011;40514;52.758;6.360;2022-12-18T07:03:07;36.47;;;16.83;;
54613;SDS011;40514;52.758;6.360;2022-12-18T07:05:33;35.40;;;15.93;;
54613;SDS011;40514;52.758;6.360;2022-12-18T07:07:59;29.67;;;14.87;;
54613;SDS011;40514;52.758;6.360;2022-12-18T07:10:24;36.03;;;15.10;;
54613;SDS011;40514;52.758;6.360;2022-12-18T07:12:50;32.30;;;15.63;;
54613;SDS011;40514;52.758;6.360;2022-12-18T07:15:16;31.47;;;15.70;;
54613;SDS011;40514;52.758;6.360;2022-12-18T07:17:41;34.27;;;15.23;;
54613;SDS011;40514;52.758;6.360;2022-12-18T07:20:07;29.07;;;14.33;;
54613;SDS011;40514;52.758;6.360;2022-12-18T07:22:33;33.05;;;16.02;;
54613;SDS011;40514;52.758;6.360;2022-12-18T07:24:59;27.17;;;14.20;;
54613;SDS011;40514;52.758;6.360;2022-12-18T07:27:24;25.27;;;13.60;;
54613;SDS011;40514;52.758;6.360;2022-12-18T07:29:50;32.70;;;15.77;;
54613;SDS011;40514;52.758;6.360;2022-12-18T07:32:15;33.17;;;15.50;;
54613;SDS011;40514;52.758;6.360;2022-12-18T07:34:41;30.20;;;14.73;;
54613;SDS011;40514;52.758;6.360;2022-12-18T07:37:07;26.07;;;14.40;;
54613;SDS011;40514;52.758;6.360;2022-12-18T07:39:32;30.00;;;14.83;;
54613;SDS011;40514;52.758;6.360;2022-12-18T07:41:58;28.70;;;14.90;;
54613;SDS011;40514;52.758;6.360;2022-12-18T07:44:42;31.75;;;14.50;;
54613;SDS011;40514;52.758;6.360;2022-12-18T07:47:07;26.67;;;13.73;;
54613;SDS011;40514;52.758;6.360;2022-12-18T07:49:33;30.80;;;14.83;;
54613;SDS011;40514;52.758;6.360;2022-12-18T07:51:59;28.10;;;14.10;;
54613;SDS011;40514;52.758;6.360;2022-12-18T07:54:24;30.60;;;14.70;;
54613;SDS011;40514;52.758;6.360;2022-12-18T07:56:50;25.87;;;13.10;;
54613;SDS011;40514;52.758;6.360;2022-12-18T07:59:16;27.27;;;13.98;;
54613;SDS011;40514;52.758;6.360;2022-12-18T08:01:42;24.30;;;13.70;;
54613;SDS011;40514;52.758;6.360;2022-12-18T08:04:08;29.23;;;14.40;;
54613;SDS011;40514;52.758;6.360;2022-12-18T08:06:33;29.10;;;14.07;;
54613;SDS011;40514;52.758;6.360;2022-12-18T08:08:59;27.70;;;13.20;;
54613;SDS011;40514;52.758;6.360;2022-12-18T08:11:25;26.53;;;12.73;;
54613;SDS011;40514;52.758;6.360;2022-12-18T08:13:52;27.35;;;14.73;;
54613;SDS011;40514;52.758;6.360;2022-12-18T08:16:18;27.67;;;14.07;;
54613;SDS011;40514;52.758;6.360;2022-12-18T08:18:44;27.35;;;14.20;;
54613;SDS011;40514;52.758;6.360;2022-12-18T08:21:10;29.20;;;15.23;;
54613;SDS011;40514;52.758;6.360;2022-12-18T08:23:36;29.73;;;14.07;;
54613;SDS011;40514;52.758;6.360;2022-12-18T08:26:02;29.43;;;15.47;;
54613;SDS011;40514;52.758;6.360;2022-12-18T08:28:27;25.20;;;13.67;;
54613;SDS011;40514;52.758;6.360;2022-12-18T08:30:53;24.20;;;13.57;;
54613;SDS011;40514;52.758;6.360;2022-12-18T08:33:18;25.53;;;14.13;;
54613;SDS011;40514;52.758;6.360;2022-12-18T08:35:44;25.00;;;13.33;;
54613;SDS011;40514;52.758;6.360;2022-12-18T08:38:10;22.93;;;12.33;;
54613;SDS011;40514;52.758;6.360;2022-12-18T08:40:35;25.03;;;13.37;;
54613;SDS011;40514;52.758;6.360;2022-12-18T08:43:01;20.47;;;11.33;;
54613;SDS011;40514;52.758;6.360;2022-12-18T08:45:45;23.02;;;12.05;;
54613;SDS011;40514;52.758;6.360;2022-12-18T08:48:10;22.70;;;11.93;;
54613;SDS011;40514;52.758;6.360;2022-12-18T08:50:36;21.07;;;11.70;;
54613;SDS011;40514;52.758;6.360;2022-12-18T08:53:01;23.10;;;11.83;;
54613;SDS011;40514;52.758;6.360;2022-12-18T08:55:27;23.70;;;12.40;;
54613;SDS011;40514;52.758;6.360;2022-12-18T08:57:53;21.87;;;12.40;;
54613;SDS011;40514;52.758;6.360;2022-12-18T09:00:18;19.77;;;11.60;;
54613;SDS011;40514;52.758;6.360;2022-12-18T09:02:44;22.77;;;12.38;;
54613;SDS011;40514;52.758;6.360;2022-12-18T09:05:10;20.07;;;11.27;;
54613;SDS011;40514;52.758;6.360;2022-12-18T09:07:36;21.20;;;12.18;;
54613;SDS011;40514;52.758;6.360;2022-12-18T09:10:02;21.20;;;11.50;;
54613;SDS011;40514;52.758;6.360;2022-12-18T09:12:28;21.13;;;11.50;;
54613;SDS011;40514;52.758;6.360;2022-12-18T09:14:53;22.67;;;11.90;;
54613;SDS011;40514;52.758;6.360;2022-12-18T09:17:19;25.30;;;11.83;;
54613;SDS011;40514;52.758;6.360;2022-12-18T09:19:44;23.50;;;11.93;;
54613;SDS011;40514;52.758;6.360;2022-12-18T09:22:10;20.90;;;11.87;;
54613;SDS011;40514;52.758;6.360;2022-12-18T09:24:35;22.83;;;10.68;;
54613;SDS011;40514;52.758;6.360;2022-12-18T09:27:01;22.83;;;11.53;;
54613;SDS011;40514;52.758;6.360;2022-12-18T09:29:27;17.43;;;10.07;;
54613;SDS011;40514;52.758;6.360;2022-12-18T09:31:53;17.05;;;9.95;;
54613;SDS011;40514;52.758;6.360;2022-12-18T09:34:18;19.80;;;10.50;;
54613;SDS011;40514;52.758;6.360;2022-12-18T09:36:46;19.90;;;10.63;;
54613;SDS011;40514;52.758;6.360;2022-12-18T09:39:12;20.93;;;12.00;;
54613;SDS011;40514;52.758;6.360;2022-12-18T09:47:28;16.73;;;10.50;;
54613;SDS011;40514;52.758;6.360;2022-12-18T09:50:03;17.15;;;10.18;;
54613;SDS011;40514;52.758;6.360;2022-12-18T09:52:39;17.40;;;10.15;;
54613;SDS011;40514;52.758;6.360;2022-12-18T09:58:06;17.08;;;9.43;;
54613;SDS011;40514;52.758;6.360;2022-12-18T10:00:35;16.63;;;9.60;;
54613;SDS011;40514;52.758;6.360;2022-12-18T10:03:10;17.77;;;9.65;;
54613;SDS011;40514;52.758;6.360;2022-12-18T10:08:29;17.02;;;9.13;;
54613;SDS011;40514;52.758;6.360;2022-12-18T10:14:41;15.90;;;9.45;;
54613;SDS011;40514;52.758;6.360;2022-12-18T10:27:29;18.35;;;9.93;;
54613;SDS011;40514;52.758;6.360;2022-12-18T10:29:55;16.30;;;9.27;;
54613;SDS011;40514;52.758;6.360;2022-12-18T10:32:22;14.38;;;9.00;;
54613;SDS011;40514;52.758;6.360;2022-12-18T10:34:54;13.85;;;9.15;;
54613;SDS011;40514;52.758;6.360;2022-12-18T10:37:25;15.57;;;9.55;;
54613;SDS011;40514;52.758;6.360;2022-12-18T10:40:09;17.63;;;10.05;;
54613;SDS011;40514;52.758;6.360;2022-12-18T10:42:40;20.02;;;13.13;;
54613;SDS011;40514;52.758;6.360;2022-12-18T10:47:46;23.40;;;15.50;;
54613;SDS011;40514;52.758;6.360;2022-12-18T10:55:19;18.80;;;12.23;;
54613;SDS011;40514;52.758;6.360;2022-12-18T10:57:44;17.77;;;10.87;;
54613;SDS011;40514;52.758;6.360;2022-12-18T11:02:48;17.02;;;9.48;;
54613;SDS011;40514;52.758;6.360;2022-12-18T11:05:28;16.27;;;9.32;;
54613;SDS011;40514;52.758;6.360;2022-12-18T11:07:56;14.88;;;8.80;;
54613;SDS011;40514;52.758;6.360;2022-12-18T11:10:28;13.85;;;8.48;;
54613;SDS011;40514;52.758;6.360;2022-12-18T11:12:57;15.35;;;8.68;;
54613;SDS011;40514;52.758;6.360;2022-12-18T11:15:37;14.50;;;8.43;;
54613;SDS011;40514;52.758;6.360;2022-12-18T11:18:14;12.75;;;8.02;;
54613;SDS011;40514;52.758;6.360;2022-12-18T11:20:43;14.05;;;8.43;;
54613;SDS011;40514;52.758;6.360;2022-12-18T11:23:17;15.18;;;8.52;;
54613;SDS011;40514;52.758;6.360;2022-12-18T11:25:51;15.10;;;9.02;;
54613;SDS011;40514;52.758;6.360;2022-12-18T11:31:12;14.75;;;8.75;;
54613;SDS011;40514;52.758;6.360;2022-12-18T11:36:32;14.32;;;8.88;;
54613;SDS011;40514;52.758;6.360;2022-12-18T11:39:07;13.90;;;8.15;;
54613;SDS011;40514;52.758;6.360;2022-12-18T11:41:57;13.70;;;8.60;;
54613;SDS011;40514;52.758;6.360;2022-12-18T11:44:51;14.45;;;8.55;;
54613;SDS011;40514;52.758;6.360;2022-12-18T11:50:34;13.40;;;8.10;;
54613;SDS011;40514;52.758;6.360;2022-12-18T11:53:11;13.23;;;7.65;;
54613;SDS011;40514;52.758;6.360;2022-12-18T11:55:40;13.30;;;7.57;;
54613;SDS011;40514;52.758;6.360;2022-12-18T11:58:12;13.57;;;7.80;;
54613;SDS011;40514;52.758;6.360;2022-12-18T12:01:14;13.05;;;7.50;;
54613;SDS011;40514;52.758;6.360;2022-12-18T12:03:47;14.20;;;7.70;;
54613;SDS011;40514;52.758;6.360;2022-12-18T12:06:24;12.50;;;6.97;;
54613;SDS011;40514;52.758;6.360;2022-12-18T12:09:17;12.35;;;6.97;;
54613;SDS011;40514;52.758;6.360;2022-12-18T12:17:20;10.85;;;7.15;;
54613;SDS011;40514;52.758;6.360;2022-12-18T12:20:16;11.55;;;7.00;;
54613;SDS011;40514;52.758;6.360;2022-12-18T12:22:58;12.30;;;6.60;;
54613;SDS011;40514;52.758;6.360;2022-12-18T12:30:54;10.25;;;5.93;;
54613;SDS011;40514;52.758;6.360;2022-12-18T12:36:33;9.73;;;6.43;;
54613;SDS011;40514;52.758;6.360;2022-12-18T12:39:13;11.15;;;6.43;;
54613;SDS011;40514;52.758;6.360;2022-12-18T12:41:42;11.77;;;7.00;;
54613;SDS011;40514;52.758;6.360;2022-12-18T12:44:31;11.88;;;6.80;;
54613;SDS011;40514;52.758;6.360;2022-12-18T12:47:06;9.85;;;6.05;;
54613;SDS011;40514;52.758;6.360;2022-12-18T12:49:55;9.05;;;5.65;;
54613;SDS011;40514;52.758;6.360;2022-12-18T12:52:31;9.30;;;5.63;;
54613;SDS011;40514;52.758;6.360;2022-12-18T12:57:33;9.43;;;5.60;;
54613;SDS011;40514;52.758;6.360;2022-12-18T13:00:07;9.75;;;5.72;;
54613;SDS011;40514;52.758;6.360;2022-12-18T13:02:39;9.80;;;5.63;;
54613;SDS011;40514;52.758;6.360;2022-12-18T13:20:33;9.27;;;5.13;;
54613;SDS011;40514;52.758;6.360;2022-12-18T13:25:55;9.20;;;5.53;;
54613;SDS011;40514;52.758;6.360;2022-12-18T13:29:08;8.48;;;4.60;;
54613;SDS011;40514;52.758;6.360;2022-12-18T13:34:15;9.52;;;5.38;;
54613;SDS011;40514;52.758;6.360;2022-12-18T13:36:43;10.20;;;5.20;;
54613;SDS011;40514;52.758;6.360;2022-12-18T13:46:54;10.73;;;5.65;;
54613;SDS011;40514;52.758;6.360;2022-12-18T13:49:22;9.23;;;5.00;;
54613;SDS011;40514;52.758;6.360;2022-12-18T13:51:50;9.82;;;5.55;;
54613;SDS011;40514;52.758;6.360;2022-12-18T13:57:04;13.65;;;7.32;;
54613;SDS011;40514;52.758;6.360;2022-12-18T13:59:50;10.88;;;5.60;;
54613;SDS011;40514;52.758;6.360;2022-12-18T14:02:17;8.88;;;5.75;;
54613;SDS011;40514;52.758;6.360;2022-12-18T14:04:47;10.65;;;5.93;;
54613;SDS011;40514;52.758;6.360;2022-12-18T14:09:42;9.38;;;5.25;;
54613;SDS011;40514;52.758;6.360;2022-12-18T14:12:18;8.52;;;5.47;;
54613;SDS011;40514;52.758;6.360;2022-12-18T14:15:09;10.35;;;6.20;;
54613;SDS011;40514;52.758;6.360;2022-12-18T14:17:55;12.45;;;6.82;;
54613;SDS011;40514;52.758;6.360;2022-12-18T14:20:28;10.77;;;5.78;;
54613;SDS011;40514;52.758;6.360;2022-12-18T14:22:57;9.35;;;5.90;;
54613;SDS011;40514;52.758;6.360;2022-12-18T14:25:24;8.60;;;5.70;;
54613;SDS011;40514;52.758;6.360;2022-12-18T14:27:52;8.95;;;5.47;;
54613;SDS011;40514;52.758;6.360;2022-12-18T14:30:39;10.18;;;6.00;;
54613;SDS011;40514;52.758;6.360;2022-12-18T14:35:32;10.50;;;5.67;;
54613;SDS011;40514;52.758;6.360;2022-12-18T14:41:13;9.18;;;5.63;;
54613;SDS011;40514;52.758;6.360;2022-12-18T14:43:42;9.05;;;5.28;;
54613;SDS011;40514;52.758;6.360;2022-12-18T14:48:57;10.13;;;5.60;;
54613;SDS011;40514;52.758;6.360;2022-12-18T14:51:27;8.50;;;5.72;;
54613;SDS011;40514;52.758;6.360;2022-12-18T14:53:56;9.95;;;5.15;;
54613;SDS011;40514;52.758;6.360;2022-12-18T14:56:36;9.10;;;5.05;;
54613;SDS011;40514;52.758;6.360;2022-12-18T14:59:24;9.77;;;5.53;;
54613;SDS011;40514;52.758;6.360;2022-12-18T15:02:04;9.90;;;5.50;;
54613;SDS011;40514;52.758;6.360;2022-12-18T15:04:37;8.68;;;5.57;;
54613;SDS011;40514;52.758;6.360;2022-12-18T15:07:15;9.85;;;5.50;;
54613;SDS011;40514;52.758;6.360;2022-12-18T15:09:44;10.30;;;5.40;;
54613;SDS011;40514;52.758;6.360;2022-12-18T15:12:33;9.60;;;5.75;;
54613;SDS011;40514;52.758;6.360;2022-12-18T15:15:00;9.80;;;6.00;;
54613;SDS011;40514;52.758;6.360;2022-12-18T15:17:26;10.57;;;5.97;;
54613;SDS011;40514;52.758;6.360;2022-12-18T15:19:53;8.77;;;5.35;;
54613;SDS011;40514;52.758;6.360;2022-12-18T15:22:34;12.02;;;6.20;;
54613;SDS011;40514;52.758;6.360;2022-12-18T15:25:01;10.50;;;6.07;;
54613;SDS011;40514;52.758;6.360;2022-12-18T15:27:47;10.23;;;6.05;;
54613;SDS011;40514;52.758;6.360;2022-12-18T15:30:19;11.90;;;6.87;;
54613;SDS011;40514;52.758;6.360;2022-12-18T15:32:50;12.35;;;6.97;;
54613;SDS011;40514;52.758;6.360;2022-12-18T15:35:18;11.77;;;7.07;;
54613;SDS011;40514;52.758;6.360;2022-12-18T15:37:46;10.63;;;6.00;;
54613;SDS011;40514;52.758;6.360;2022-12-18T15:40:13;11.90;;;7.00;;
54613;SDS011;40514;52.758;6.360;2022-12-18T15:42:40;13.45;;;6.97;;
54613;SDS011;40514;52.758;6.360;2022-12-18T15:45:24;11.48;;;6.50;;
54613;SDS011;40514;52.758;6.360;2022-12-18T15:47:50;11.13;;;6.80;;
54613;SDS011;40514;52.758;6.360;2022-12-18T15:50:15;12.27;;;6.60;;
54613;SDS011;40514;52.758;6.360;2022-12-18T15:52:43;13.40;;;7.13;;
54613;SDS011;40514;52.758;6.360;2022-12-18T15:55:15;13.25;;;6.95;;
54613;SDS011;40514;52.758;6.360;2022-12-18T15:58:04;11.90;;;6.82;;
54613;SDS011;40514;52.758;6.360;2022-12-18T16:00:34;11.25;;;6.55;;
54613;SDS011;40514;52.758;6.360;2022-12-18T16:03:01;12.38;;;6.82;;
54613;SDS011;40514;52.758;6.360;2022-12-18T16:05:27;12.40;;;6.60;;
54613;SDS011;40514;52.758;6.360;2022-12-18T16:07:53;11.98;;;7.15;;
54613;SDS011;40514;52.758;6.360;2022-12-18T16:10:19;11.83;;;6.90;;
54613;SDS011;40514;52.758;6.360;2022-12-18T16:12:45;12.18;;;7.43;;
54613;SDS011;40514;52.758;6.360;2022-12-18T16:15:12;12.13;;;7.13;;
54613;SDS011;40514;52.758;6.360;2022-12-18T16:17:40;14.15;;;7.43;;
54613;SDS011;40514;52.758;6.360;2022-12-18T16:20:16;12.60;;;7.65;;
54613;SDS011;40514;52.758;6.360;2022-12-18T16:22:44;11.73;;;7.20;;
54613;SDS011;40514;52.758;6.360;2022-12-18T16:27:51;13.05;;;7.80;;
54613;SDS011;40514;52.758;6.360;2022-12-18T16:32:44;12.82;;;7.88;;
54613;SDS011;40514;52.758;6.360;2022-12-18T16:35:11;12.00;;;7.70;;
54613;SDS011;40514;52.758;6.360;2022-12-18T16:37:38;12.05;;;7.80;;
54613;SDS011;40514;52.758;6.360;2022-12-18T16:40:04;14.07;;;7.88;;
54613;SDS011;40514;52.758;6.360;2022-12-18T16:42:34;12.75;;;8.10;;
54613;SDS011;40514;52.758;6.360;2022-12-18T16:45:11;12.02;;;7.97;;
54613;SDS011;40514;52.758;6.360;2022-12-18T16:47:38;10.93;;;7.40;;
54613;SDS011;40514;52.758;6.360;2022-12-18T16:50:03;13.77;;;8.00;;
54613;SDS011;40514;52.758;6.360;2022-12-18T16:52:30;15.93;;;7.93;;
54613;SDS011;40514;52.758;6.360;2022-12-18T16:54:55;25.92;;;17.50;;